createdAt,value
2018-08-04T00:09:07.018Z,93914.98
2018-08-04T00:24:11.321Z,93907.31
2018-08-04T00:39:15.689Z,93889.89
2018-08-04T00:54:19.741Z,93906.15
2018-08-04T01:09:23.971Z,93910.78
2018-08-04T01:24:28.171Z,93918.30
2018-08-04T01:39:32.287Z,93903.77
2018-08-04T01:54:36.362Z,93909.95
2018-08-04T02:09:40.484Z,93900.41
2018-08-04T02:24:44.825Z,93909.27
2018-08-04T02:39:49.085Z,93902.84
2018-08-04T02:54:53.285Z,93917.13
2018-08-04T03:09:57.483Z,93938.23
2018-08-04T03:25:01.761Z,93950.05
2018-08-04T03:40:06.176Z,93957.80
2018-08-04T03:55:10.289Z,93960.16
2018-08-04T04:10:14.488Z,93971.66
2018-08-04T04:25:18.586Z,93971.36
2018-08-04T04:40:23.055Z,93974.77
2018-08-04T04:55:27.521Z,93976.02
2018-08-04T05:10:31.657Z,93988.18
2018-08-04T05:25:37.371Z,93997.47
2018-08-04T05:40:41.491Z,93979.98
2018-08-04T05:55:45.574Z,93957.18
2018-08-04T06:10:49.713Z,93954.40
2018-08-04T06:25:54.018Z,93962.64
2018-08-04T06:40:58.201Z,93954.42
2018-08-04T06:56:02.575Z,93947.25
2018-08-04T07:11:06.709Z,93950.84
2018-08-04T07:26:11.049Z,93948.52
2018-08-04T07:41:15.314Z,93947.41
2018-08-04T07:56:19.293Z,93945.80
2018-08-04T08:11:23.880Z,93944.05
2018-08-04T08:26:27.693Z,93944.23
2018-08-04T08:41:31.955Z,93934.31
2018-08-04T08:56:36.260Z,93914.72
2018-08-04T09:11:40.476Z,93909.16
2018-08-04T09:26:44.804Z,93905.93
2018-08-04T09:41:48.684Z,93898.03
2018-08-04T09:56:53.091Z,93901.52
2018-08-04T10:11:57.825Z,93888.48
2018-08-04T10:27:01.875Z,93877.36
2018-08-04T10:42:06.988Z,93873.47
2018-08-04T10:57:11.327Z,93865.99
2018-08-04T11:12:15.309Z,93872.27
2018-08-04T11:27:19.360Z,93870.77
2018-08-04T11:42:23.607Z,93867.19
2018-08-04T11:57:27.975Z,93863.28
2018-08-04T12:12:32.061Z,93860.28
2018-08-04T12:27:36.282Z,93844.71
2018-08-04T12:42:40.674Z,93849.97
2018-08-04T12:57:45.016Z,93842.48
2018-08-04T13:12:49.321Z,93851.77
2018-08-04T13:27:54.019Z,93849.86
2018-08-04T13:42:58.412Z,93852.06
2018-08-04T13:58:02.591Z,93849.05
2018-08-04T14:13:06.947Z,93848.53
2018-08-04T14:28:11.338Z,93856.33
2018-08-04T14:43:15.802Z,93852.19
2018-08-04T14:58:19.797Z,93842.77
2018-08-04T15:13:24.221Z,93840.23
2018-08-04T15:28:28.522Z,93836.64
2018-08-04T15:43:33.145Z,93845.80
2018-08-04T15:58:37.307Z,93858.80
2018-08-04T16:13:41.708Z,93854.10
2018-08-04T16:28:46.033Z,93848.36
2018-08-04T16:43:49.972Z,93858.95
2018-08-04T16:58:53.918Z,93867.72
2018-08-04T17:14:29.062Z,93875.64
2018-08-04T17:30:02.297Z,93882.95
2018-08-04T17:45:36.276Z,93898.63
2018-08-04T18:01:10.350Z,93910.86
2018-08-04T18:16:45.571Z,93912.37
2018-08-04T18:32:19.240Z,93937.91
2018-08-04T18:47:53.044Z,93946.97
2018-08-04T19:03:27.293Z,93947.08
2018-08-04T19:19:02.866Z,93951.77
2018-08-04T19:34:36.930Z,93938.03
2018-08-04T19:50:11.997Z,93942.69
2018-08-04T20:05:45.726Z,93937.10
2018-08-04T20:21:20.526Z,93939.30
2018-08-04T20:36:55.040Z,93938.86
2018-08-04T20:52:29.586Z,93941.16
2018-08-04T21:08:03.309Z,93941.64
2018-08-04T21:23:37.464Z,93939.08
2018-08-04T21:39:13.223Z,93940.05
2018-08-04T21:54:48.221Z,93939.73
2018-08-04T22:10:22.953Z,93952.00
2018-08-04T22:25:57.354Z,93958.76
2018-08-04T22:41:30.189Z,93955.80
2018-08-04T22:57:04.623Z,93949.28
2018-08-04T23:12:40.514Z,93953.86
2018-08-04T23:28:14.755Z,93941.67
2018-08-04T23:43:50.208Z,93934.73
2018-08-04T23:59:25.113Z,93931.09
